CSATW EKCH-ENGM
Flight info
| Callsign | CSATW |
|---|---|
| Flight time | 1h 12m |
| Altitude | 12000 |
| Route | EKCH VEDA3B VEDAR L997 LUNIP LUNI4L ENGM |
| Aircraft | TBM9/L-VGD/A |
Departure
| Time | 2026-05-06 18:00 |
|---|---|
| Airport | Copenhagen Kastrup Airport (EKCH) |
Arrival
| Time | 2026-05-06 19:12 |
|---|---|
| Airport | Oslo-Gardermoen International Airport (ENGM) |
| Time | Latitude | Longitude | Altitude | Speed | Heading |
|---|---|---|---|---|---|
| 2026-05-06 17:19 | 55.61941 | 12.66628 | 12 ft | 0 kts | 348° |
| 2026-05-06 17:44 | 55.61936 | 12.66630 | 12 ft | 4 kts | 348° |
| 2026-05-06 17:45 | 55.61910 | 12.66639 | 12 ft | 4 kts | 348° |
| 2026-05-06 17:45 | 55.61883 | 12.66649 | 12 ft | 4 kts | 349° |
| 2026-05-06 17:45 | 55.61869 | 12.66667 | 11 ft | 2 kts | 294° |
| 2026-05-06 17:45 | 55.61867 | 12.66688 | 11 ft | 0 kts | 258° |
| 2026-05-06 17:50 | 55.61862 | 12.66647 | 11 ft | 7 kts | 258° |
| 2026-05-06 17:50 | 55.61851 | 12.66556 | 12 ft | 9 kts | 258° |
| 2026-05-06 17:50 | 55.61829 | 12.66446 | 11 ft | 11 kts | 230° |
| 2026-05-06 17:51 | 55.61764 | 12.66411 | 13 ft | 10 kts | 196° |
| 2026-05-06 17:51 | 55.61705 | 12.66354 | 14 ft | 10 kts | 216° |
| 2026-05-06 17:51 | 55.61657 | 12.66259 | 15 ft | 10 kts | 244° |
| 2026-05-06 17:51 | 55.61638 | 12.66144 | 17 ft | 9 kts | 265° |
| 2026-05-06 17:52 | 55.61646 | 12.66034 | 18 ft | 10 kts | 287° |
| 2026-05-06 17:52 | 55.61678 | 12.65915 | 18 ft | 11 kts | 300° |
| 2026-05-06 17:52 | 55.61722 | 12.65793 | 19 ft | 13 kts | 303° |
| 2026-05-06 17:52 | 55.61742 | 12.65739 | 17 ft | 2 kts | 302° |
| 2026-05-06 17:53 | 55.61759 | 12.65690 | 16 ft | 8 kts | 301° |
| 2026-05-06 17:53 | 55.61796 | 12.65593 | 15 ft | 11 kts | 302° |
| 2026-05-06 17:53 | 55.61843 | 12.65464 | 13 ft | 14 kts | 304° |
| 2026-05-06 17:53 | 55.61906 | 12.65295 | 11 ft | 18 kts | 303° |
| 2026-05-06 17:54 | 55.61949 | 12.65174 | 12 ft | 18 kts | 302° |
| 2026-05-06 17:54 | 55.62005 | 12.64973 | 14 ft | 18 kts | 255° |
| 2026-05-06 17:54 | 55.61936 | 12.64868 | 12 ft | 15 kts | 214° |
| 2026-05-06 17:54 | 55.61846 | 12.64764 | 14 ft | 15 kts | 213° |
| 2026-05-06 17:55 | 55.61763 | 12.64663 | 16 ft | 14 kts | 212° |
| 2026-05-06 17:55 | 55.61676 | 12.64567 | 17 ft | 15 kts | 213° |
| 2026-05-06 17:55 | 55.61589 | 12.64468 | 18 ft | 16 kts | 212° |
| 2026-05-06 17:55 | 55.61495 | 12.64361 | 18 ft | 16 kts | 213° |
| 2026-05-06 17:56 | 55.61404 | 12.64257 | 15 ft | 17 kts | 211° |
| 2026-05-06 17:56 | 55.61304 | 12.64140 | 14 ft | 13 kts | 216° |
| 2026-05-06 17:56 | 55.61220 | 12.64042 | 13 ft | 15 kts | 214° |
| 2026-05-06 17:56 | 55.61129 | 12.63941 | 15 ft | 15 kts | 218° |
| 2026-05-06 17:57 | 55.61039 | 12.63831 | 15 ft | 16 kts | 212° |
| 2026-05-06 17:57 | 55.60960 | 12.63741 | 17 ft | 12 kts | 213° |
| 2026-05-06 17:57 | 55.60881 | 12.63655 | 15 ft | 14 kts | 209° |
| 2026-05-06 17:57 | 55.60801 | 12.63603 | 16 ft | 11 kts | 171° |
| 2026-05-06 17:58 | 55.60742 | 12.63676 | 17 ft | 11 kts | 130° |
| 2026-05-06 17:58 | 55.60696 | 12.63790 | 17 ft | 11 kts | 117° |
| 2026-05-06 17:58 | 55.60704 | 12.63909 | 18 ft | 10 kts | 56° |
| 2026-05-06 17:58 | 55.60755 | 12.63997 | 19 ft | 8 kts | 41° |
| 2026-05-06 17:59 | 55.60794 | 12.64057 | 20 ft | 8 kts | 41° |
| 2026-05-06 17:59 | 55.60948 | 12.64307 | 16 ft | 64 kts | 39° |
| 2026-05-06 17:59 | 55.61446 | 12.65054 | 150 ft | 113 kts | 46° |
| 2026-05-06 17:59 | 55.62094 | 12.66025 | 589 ft | 128 kts | 46° |
| 2026-05-06 18:00 | 55.62753 | 12.67046 | 1426 ft | 121 kts | 47° |
| 2026-05-06 18:00 | 55.63378 | 12.68036 | 2204 ft | 123 kts | 47° |
| 2026-05-06 18:00 | 55.64016 | 12.69044 | 2859 ft | 123 kts | 46° |
| 2026-05-06 18:00 | 55.64681 | 12.69994 | 3481 ft | 125 kts | 33° |
| 2026-05-06 18:01 | 55.65542 | 12.70354 | 4106 ft | 131 kts | 5° |
| 2026-05-06 18:01 | 55.66455 | 12.70245 | 4753 ft | 130 kts | 2° |
| 2026-05-06 18:01 | 55.67353 | 12.70131 | 5368 ft | 131 kts | 350° |
| 2026-05-06 18:01 | 55.68206 | 12.69529 | 5993 ft | 131 kts | 343° |
| 2026-05-06 18:02 | 55.69053 | 12.68963 | 6620 ft | 130 kts | 343° |
| 2026-05-06 18:02 | 55.69902 | 12.68402 | 7204 ft | 130 kts | 343° |
| 2026-05-06 18:02 | 55.70755 | 12.67840 | 7788 ft | 132 kts | 341° |
| 2026-05-06 18:02 | 55.71617 | 12.67271 | 8383 ft | 132 kts | 341° |
| 2026-05-06 18:03 | 55.72485 | 12.66701 | 8991 ft | 133 kts | 340° |
| 2026-05-06 18:03 | 55.73360 | 12.66121 | 9593 ft | 135 kts | 340° |
| 2026-05-06 18:03 | 55.74235 | 12.65546 | 10188 ft | 136 kts | 339° |
| 2026-05-06 18:03 | 55.75139 | 12.64947 | 10784 ft | 137 kts | 337° |
| 2026-05-06 18:04 | 55.76030 | 12.64360 | 11394 ft | 139 kts | 337° |
| 2026-05-06 18:04 | 55.76941 | 12.63760 | 11937 ft | 147 kts | 336° |
| 2026-05-06 18:04 | 55.78029 | 12.63043 | 11982 ft | 186 kts | 338° |
| 2026-05-06 18:04 | 55.79355 | 12.62188 | 11984 ft | 217 kts | 338° |
| 2026-05-06 18:05 | 55.80847 | 12.61219 | 11985 ft | 238 kts | 338° |
| 2026-05-06 18:05 | 55.82441 | 12.60169 | 11980 ft | 251 kts | 338° |
| 2026-05-06 18:05 | 55.84103 | 12.59070 | 11981 ft | 258 kts | 338° |
| 2026-05-06 18:05 | 55.85806 | 12.57942 | 11975 ft | 263 kts | 338° |
| 2026-05-06 18:06 | 55.87530 | 12.56798 | 11974 ft | 265 kts | 338° |
| 2026-05-06 18:06 | 55.89266 | 12.55644 | 11975 ft | 267 kts | 338° |
| 2026-05-06 18:06 | 55.91009 | 12.54483 | 11974 ft | 268 kts | 338° |
| 2026-05-06 18:06 | 55.92761 | 12.53318 | 11974 ft | 268 kts | 338° |
| 2026-05-06 18:07 | 55.94510 | 12.52155 | 11968 ft | 269 kts | 338° |
| 2026-05-06 18:07 | 55.96268 | 12.50980 | 11969 ft | 269 kts | 338° |
| 2026-05-06 18:07 | 55.98026 | 12.49805 | 11966 ft | 269 kts | 338° |
| 2026-05-06 18:07 | 55.99785 | 12.48631 | 11968 ft | 270 kts | 338° |
| 2026-05-06 18:08 | 56.01523 | 12.47473 | 11964 ft | 270 kts | 338° |
| 2026-05-06 18:08 | 56.03307 | 12.46277 | 11962 ft | 270 kts | 338° |
| 2026-05-06 18:08 | 56.05041 | 12.45109 | 11956 ft | 270 kts | 338° |
| 2026-05-06 18:08 | 56.06804 | 12.43927 | 11954 ft | 270 kts | 338° |
| 2026-05-06 18:09 | 56.08569 | 12.42744 | 11953 ft | 270 kts | 338° |
| 2026-05-06 18:09 | 56.10331 | 12.41563 | 11948 ft | 271 kts | 338° |
| 2026-05-06 18:09 | 56.12095 | 12.40373 | 11950 ft | 271 kts | 338° |
| 2026-05-06 18:09 | 56.13864 | 12.39181 | 11949 ft | 270 kts | 338° |
| 2026-05-06 18:10 | 56.15625 | 12.37994 | 11950 ft | 270 kts | 338° |
| 2026-05-06 18:10 | 56.17389 | 12.36804 | 11949 ft | 270 kts | 338° |
| 2026-05-06 18:10 | 56.19146 | 12.35617 | 11945 ft | 270 kts | 338° |
| 2026-05-06 18:10 | 56.20906 | 12.34427 | 11944 ft | 270 kts | 338° |
| 2026-05-06 18:11 | 56.22663 | 12.33238 | 11947 ft | 270 kts | 338° |
| 2026-05-06 18:11 | 56.24424 | 12.32045 | 11947 ft | 270 kts | 338° |
| 2026-05-06 18:11 | 56.26090 | 12.30915 | 11946 ft | 270 kts | 338° |
| 2026-05-06 18:11 | 56.27849 | 12.29722 | 11946 ft | 270 kts | 338° |
| 2026-05-06 18:12 | 56.29608 | 12.28526 | 11947 ft | 270 kts | 338° |
| 2026-05-06 18:12 | 56.31365 | 12.27331 | 11944 ft | 270 kts | 338° |
| 2026-05-06 18:12 | 56.33101 | 12.26148 | 11947 ft | 270 kts | 338° |
| 2026-05-06 18:12 | 56.34856 | 12.24954 | 11945 ft | 270 kts | 338° |
| 2026-05-06 18:13 | 56.36613 | 12.23755 | 11947 ft | 270 kts | 338° |
| 2026-05-06 18:13 | 56.38370 | 12.22555 | 11950 ft | 270 kts | 338° |
| 2026-05-06 18:13 | 56.40135 | 12.21350 | 11948 ft | 270 kts | 338° |
| 2026-05-06 18:13 | 56.41888 | 12.20148 | 11950 ft | 270 kts | 338° |
| 2026-05-06 18:14 | 56.43647 | 12.18945 | 11944 ft | 270 kts | 338° |
| 2026-05-06 18:14 | 56.45403 | 12.17741 | 11947 ft | 271 kts | 338° |
| 2026-05-06 18:14 | 56.47168 | 12.16531 | 11945 ft | 271 kts | 338° |
| 2026-05-06 18:14 | 56.48933 | 12.15319 | 11947 ft | 272 kts | 338° |
| 2026-05-06 18:15 | 56.50704 | 12.14102 | 11943 ft | 272 kts | 338° |
| 2026-05-06 18:15 | 56.52472 | 12.12885 | 11944 ft | 272 kts | 338° |
| 2026-05-06 18:15 | 56.54315 | 12.12068 | 11956 ft | 273 kts | 351° |
| 2026-05-06 18:15 | 56.56199 | 12.11599 | 11955 ft | 274 kts | 349° |
| 2026-05-06 18:16 | 56.58057 | 12.11039 | 11954 ft | 274 kts | 349° |
| 2026-05-06 18:16 | 56.59937 | 12.10497 | 11954 ft | 274 kts | 350° |
| 2026-05-06 18:16 | 56.61822 | 12.09979 | 11953 ft | 274 kts | 350° |
| 2026-05-06 18:16 | 56.63711 | 12.09452 | 11950 ft | 274 kts | 350° |
| 2026-05-06 18:17 | 56.65598 | 12.08922 | 11949 ft | 274 kts | 350° |
| 2026-05-06 18:17 | 56.67481 | 12.08391 | 11948 ft | 274 kts | 350° |
| 2026-05-06 18:17 | 56.69365 | 12.07860 | 11945 ft | 274 kts | 350° |
| 2026-05-06 18:17 | 56.71255 | 12.07328 | 11944 ft | 274 kts | 350° |
| 2026-05-06 18:18 | 56.73142 | 12.06795 | 11941 ft | 274 kts | 350° |
| 2026-05-06 18:18 | 56.75003 | 12.06270 | 11944 ft | 274 kts | 350° |
| 2026-05-06 18:18 | 56.76888 | 12.05737 | 11943 ft | 274 kts | 350° |
| 2026-05-06 18:18 | 56.78778 | 12.05203 | 11939 ft | 274 kts | 350° |
| 2026-05-06 18:19 | 56.80672 | 12.04666 | 11938 ft | 274 kts | 350° |
| 2026-05-06 18:19 | 56.82563 | 12.04131 | 11941 ft | 274 kts | 350° |
| 2026-05-06 18:19 | 56.84449 | 12.03595 | 11940 ft | 274 kts | 350° |
| 2026-05-06 18:19 | 56.86337 | 12.03059 | 11939 ft | 274 kts | 350° |
| 2026-05-06 18:20 | 56.88225 | 12.02521 | 11942 ft | 274 kts | 350° |
| 2026-05-06 18:20 | 56.90091 | 12.01990 | 11940 ft | 275 kts | 350° |
| 2026-05-06 18:20 | 56.91976 | 12.01453 | 11940 ft | 275 kts | 350° |
| 2026-05-06 18:20 | 56.93867 | 12.00914 | 11942 ft | 275 kts | 350° |
| 2026-05-06 18:21 | 56.95756 | 12.00374 | 11943 ft | 275 kts | 350° |
| 2026-05-06 18:21 | 56.97570 | 11.99856 | 11941 ft | 275 kts | 350° |
| 2026-05-06 18:21 | 56.99469 | 11.99313 | 11940 ft | 275 kts | 350° |
| 2026-05-06 18:21 | 57.01354 | 11.98773 | 11941 ft | 275 kts | 350° |
| 2026-05-06 18:22 | 57.03243 | 11.98231 | 11939 ft | 275 kts | 350° |
| 2026-05-06 18:22 | 57.05135 | 11.97688 | 11940 ft | 275 kts | 350° |
| 2026-05-06 18:22 | 57.07031 | 11.97143 | 11940 ft | 275 kts | 350° |
| 2026-05-06 18:22 | 57.08921 | 11.96600 | 11940 ft | 275 kts | 350° |
| 2026-05-06 18:23 | 57.10812 | 11.96055 | 11939 ft | 275 kts | 349° |
| 2026-05-06 18:23 | 57.12706 | 11.95510 | 11938 ft | 275 kts | 350° |
| 2026-05-06 18:23 | 57.14599 | 11.94964 | 11938 ft | 275 kts | 350° |
| 2026-05-06 18:23 | 57.16491 | 11.94418 | 11937 ft | 276 kts | 349° |
| 2026-05-06 18:24 | 57.18386 | 11.93868 | 11936 ft | 276 kts | 349° |
| 2026-05-06 18:24 | 57.20284 | 11.93320 | 11941 ft | 276 kts | 349° |
| 2026-05-06 18:24 | 57.22178 | 11.92771 | 11939 ft | 276 kts | 349° |
| 2026-05-06 18:24 | 57.24075 | 11.92220 | 11941 ft | 276 kts | 349° |
| 2026-05-06 18:25 | 57.25974 | 11.91669 | 11937 ft | 276 kts | 349° |
| 2026-05-06 18:25 | 57.27875 | 11.91117 | 11941 ft | 276 kts | 350° |
| 2026-05-06 18:25 | 57.29772 | 11.90567 | 11940 ft | 276 kts | 350° |
| 2026-05-06 18:25 | 57.31671 | 11.90014 | 11936 ft | 276 kts | 349° |
| 2026-05-06 18:26 | 57.33565 | 11.89459 | 11938 ft | 276 kts | 349° |
| 2026-05-06 18:26 | 57.35465 | 11.88903 | 11936 ft | 276 kts | 350° |
| 2026-05-06 18:26 | 57.37359 | 11.88351 | 11935 ft | 276 kts | 349° |
| 2026-05-06 18:26 | 57.39261 | 11.87795 | 11934 ft | 276 kts | 349° |
| 2026-05-06 18:27 | 57.41137 | 11.87248 | 11935 ft | 276 kts | 349° |
| 2026-05-06 18:27 | 57.43033 | 11.86691 | 11938 ft | 276 kts | 349° |
| 2026-05-06 18:27 | 57.44933 | 11.86131 | 11937 ft | 276 kts | 349° |
| 2026-05-06 18:27 | 57.46828 | 11.85573 | 11936 ft | 276 kts | 349° |
| 2026-05-06 18:28 | 57.48720 | 11.85018 | 11936 ft | 276 kts | 350° |
| 2026-05-06 18:28 | 57.50624 | 11.84460 | 11936 ft | 276 kts | 349° |
| 2026-05-06 18:28 | 57.52520 | 11.83898 | 11932 ft | 276 kts | 349° |
| 2026-05-06 18:28 | 57.54415 | 11.83338 | 11935 ft | 276 kts | 349° |
| 2026-05-06 18:29 | 57.56312 | 11.82779 | 11933 ft | 276 kts | 349° |
| 2026-05-06 18:29 | 57.58209 | 11.82218 | 11934 ft | 276 kts | 349° |
| 2026-05-06 18:29 | 57.60107 | 11.81656 | 11953 ft | 276 kts | 349° |
| 2026-05-06 18:29 | 57.62004 | 11.81095 | 11956 ft | 276 kts | 349° |
| 2026-05-06 18:30 | 57.63906 | 11.80526 | 11955 ft | 276 kts | 349° |
| 2026-05-06 18:30 | 57.65804 | 11.79962 | 11956 ft | 276 kts | 349° |
| 2026-05-06 18:30 | 57.67674 | 11.79409 | 11958 ft | 276 kts | 349° |
| 2026-05-06 18:30 | 57.69568 | 11.78844 | 11958 ft | 276 kts | 349° |
| 2026-05-06 18:31 | 57.71465 | 11.78280 | 11960 ft | 275 kts | 349° |
| 2026-05-06 18:31 | 57.73362 | 11.77712 | 11959 ft | 276 kts | 349° |
| 2026-05-06 18:31 | 57.75263 | 11.77145 | 11958 ft | 276 kts | 349° |
| 2026-05-06 18:31 | 57.77156 | 11.76580 | 11959 ft | 276 kts | 349° |
| 2026-05-06 18:32 | 57.79059 | 11.76009 | 11960 ft | 276 kts | 349° |
| 2026-05-06 18:32 | 57.80957 | 11.75441 | 11960 ft | 276 kts | 349° |
| 2026-05-06 18:32 | 57.82859 | 11.74869 | 11958 ft | 276 kts | 349° |
| 2026-05-06 18:32 | 57.84758 | 11.74303 | 11964 ft | 277 kts | 349° |
| 2026-05-06 18:33 | 57.86659 | 11.73728 | 11962 ft | 277 kts | 349° |
| 2026-05-06 18:33 | 57.88560 | 11.73152 | 11959 ft | 278 kts | 349° |
| 2026-05-06 18:33 | 57.90473 | 11.72589 | 11952 ft | 278 kts | 349° |
| 2026-05-06 18:33 | 57.92381 | 11.72010 | 11957 ft | 277 kts | 349° |
| 2026-05-06 18:34 | 57.93639 | 11.71622 | 11950 ft | 277 kts | 349° |
| 2026-05-06 18:34 | 57.95538 | 11.71048 | 11952 ft | 276 kts | 349° |
| 2026-05-06 18:34 | 57.97444 | 11.70476 | 11949 ft | 276 kts | 349° |
| 2026-05-06 18:34 | 57.99344 | 11.69900 | 11950 ft | 276 kts | 349° |
| 2026-05-06 18:35 | 58.01243 | 11.69325 | 11952 ft | 277 kts | 349° |
| 2026-05-06 18:35 | 58.03151 | 11.68745 | 11947 ft | 277 kts | 349° |
| 2026-05-06 18:35 | 58.05063 | 11.68162 | 11944 ft | 278 kts | 349° |
| 2026-05-06 18:35 | 58.06949 | 11.67612 | 11945 ft | 278 kts | 349° |
| 2026-05-06 18:36 | 58.08861 | 11.67015 | 11949 ft | 278 kts | 348° |
| 2026-05-06 18:36 | 58.10772 | 11.66420 | 11948 ft | 278 kts | 349° |
| 2026-05-06 18:36 | 58.12680 | 11.65848 | 11945 ft | 278 kts | 349° |
| 2026-05-06 18:36 | 58.14593 | 11.65267 | 11950 ft | 278 kts | 348° |
| 2026-05-06 18:37 | 58.16506 | 11.64666 | 11948 ft | 279 kts | 348° |
| 2026-05-06 18:37 | 58.18421 | 11.64095 | 11947 ft | 279 kts | 348° |
| 2026-05-06 18:37 | 58.20339 | 11.63518 | 11945 ft | 278 kts | 348° |
| 2026-05-06 18:37 | 58.22253 | 11.62923 | 11944 ft | 278 kts | 348° |
| 2026-05-06 18:38 | 58.24167 | 11.62329 | 11947 ft | 278 kts | 348° |
| 2026-05-06 18:38 | 58.26074 | 11.61735 | 11947 ft | 278 kts | 348° |
| 2026-05-06 18:38 | 58.27987 | 11.61149 | 11943 ft | 278 kts | 348° |
| 2026-05-06 18:38 | 58.29900 | 11.60564 | 11954 ft | 278 kts | 348° |
| 2026-05-06 18:39 | 58.31815 | 11.59975 | 11952 ft | 278 kts | 348° |
| 2026-05-06 18:39 | 58.33725 | 11.59389 | 11948 ft | 278 kts | 348° |
| 2026-05-06 18:39 | 58.35620 | 11.58793 | 11946 ft | 279 kts | 348° |
| 2026-05-06 18:40 | 58.39448 | 11.57616 | 11945 ft | 278 kts | 348° |
| 2026-05-06 18:40 | 58.41366 | 11.57016 | 11946 ft | 278 kts | 348° |
| 2026-05-06 18:40 | 58.43286 | 11.56418 | 11947 ft | 279 kts | 348° |
| 2026-05-06 18:40 | 58.45201 | 11.55826 | 11946 ft | 279 kts | 348° |
| 2026-05-06 18:41 | 58.47119 | 11.55223 | 11951 ft | 278 kts | 348° |
| 2026-05-06 18:41 | 58.49005 | 11.54638 | 11945 ft | 279 kts | 348° |
| 2026-05-06 18:41 | 58.50945 | 11.54033 | 11947 ft | 278 kts | 348° |
| 2026-05-06 18:41 | 58.52839 | 11.53447 | 11947 ft | 278 kts | 347° |
| 2026-05-06 18:42 | 58.54749 | 11.52842 | 11949 ft | 279 kts | 347° |
| 2026-05-06 18:42 | 58.56661 | 11.52249 | 11953 ft | 278 kts | 347° |
| 2026-05-06 18:42 | 58.58588 | 11.51766 | 11961 ft | 280 kts | 353° |
| 2026-05-06 18:42 | 58.60544 | 11.51756 | 11964 ft | 281 kts | 358° |
| 2026-05-06 18:43 | 58.62500 | 11.51779 | 11958 ft | 281 kts | 355° |
| 2026-05-06 18:43 | 58.64452 | 11.51612 | 11954 ft | 280 kts | 354° |
| 2026-05-06 18:43 | 58.66405 | 11.51448 | 11956 ft | 280 kts | 354° |
| 2026-05-06 18:43 | 58.68361 | 11.51320 | 11953 ft | 281 kts | 355° |
| 2026-05-06 18:44 | 58.70316 | 11.51202 | 11957 ft | 281 kts | 355° |
| 2026-05-06 18:44 | 58.72273 | 11.51093 | 11953 ft | 281 kts | 355° |
| 2026-05-06 18:44 | 58.74223 | 11.50969 | 11952 ft | 281 kts | 354° |
| 2026-05-06 18:44 | 58.76151 | 11.50828 | 11957 ft | 281 kts | 354° |
| 2026-05-06 18:45 | 58.78106 | 11.50692 | 11957 ft | 281 kts | 355° |
| 2026-05-06 18:45 | 58.80062 | 11.50582 | 11956 ft | 281 kts | 355° |
| 2026-05-06 18:45 | 58.82020 | 11.50464 | 11953 ft | 282 kts | 354° |
| 2026-05-06 18:45 | 58.83978 | 11.50324 | 11943 ft | 281 kts | 354° |
| 2026-05-06 18:46 | 58.85934 | 11.50192 | 11947 ft | 281 kts | 354° |
| 2026-05-06 18:46 | 58.87894 | 11.50067 | 11945 ft | 282 kts | 354° |
| 2026-05-06 18:46 | 58.89855 | 11.49942 | 11943 ft | 281 kts | 354° |
| 2026-05-06 18:46 | 58.91812 | 11.49820 | 11950 ft | 281 kts | 354° |
| 2026-05-06 18:47 | 58.93769 | 11.49685 | 11942 ft | 281 kts | 354° |
| 2026-05-06 18:47 | 58.95729 | 11.49539 | 11952 ft | 281 kts | 354° |
| 2026-05-06 18:47 | 58.97691 | 11.49420 | 11953 ft | 282 kts | 354° |
| 2026-05-06 18:47 | 58.99653 | 11.49305 | 11947 ft | 282 kts | 354° |
| 2026-05-06 18:48 | 59.01615 | 11.49161 | 11943 ft | 282 kts | 354° |
| 2026-05-06 18:48 | 59.03562 | 11.49030 | 11946 ft | 283 kts | 354° |
| 2026-05-06 18:48 | 59.05524 | 11.48918 | 11943 ft | 282 kts | 354° |
| 2026-05-06 18:48 | 59.07486 | 11.48783 | 11940 ft | 281 kts | 354° |
| 2026-05-06 18:49 | 59.09440 | 11.48649 | 11943 ft | 281 kts | 354° |
| 2026-05-06 18:49 | 59.11400 | 11.48519 | 11940 ft | 281 kts | 354° |
| 2026-05-06 18:49 | 59.13360 | 11.48389 | 11944 ft | 282 kts | 354° |
| 2026-05-06 18:49 | 59.15321 | 11.48261 | 11944 ft | 281 kts | 354° |
| 2026-05-06 18:50 | 59.17276 | 11.48126 | 11946 ft | 281 kts | 354° |
| 2026-05-06 18:50 | 59.19232 | 11.47994 | 11949 ft | 282 kts | 354° |
| 2026-05-06 18:50 | 59.21170 | 11.47872 | 11950 ft | 282 kts | 354° |
| 2026-05-06 18:50 | 59.23129 | 11.47738 | 11951 ft | 282 kts | 354° |
| 2026-05-06 18:51 | 59.25091 | 11.47608 | 11947 ft | 282 kts | 354° |
| 2026-05-06 18:51 | 59.27048 | 11.47481 | 11951 ft | 282 kts | 354° |
| 2026-05-06 18:51 | 59.29016 | 11.47350 | 11948 ft | 282 kts | 354° |
| 2026-05-06 18:51 | 59.30986 | 11.47204 | 11947 ft | 283 kts | 354° |
| 2026-05-06 18:52 | 59.32959 | 11.47084 | 11942 ft | 283 kts | 354° |
| 2026-05-06 18:52 | 59.34927 | 11.46987 | 11944 ft | 283 kts | 354° |
| 2026-05-06 18:52 | 59.36868 | 11.46879 | 11938 ft | 283 kts | 354° |
| 2026-05-06 18:52 | 59.38860 | 11.46754 | 11934 ft | 283 kts | 354° |
| 2026-05-06 18:53 | 59.40810 | 11.46629 | 11936 ft | 284 kts | 354° |
| 2026-05-06 18:53 | 59.42790 | 11.46520 | 11935 ft | 283 kts | 354° |
| 2026-05-06 18:53 | 59.44758 | 11.46398 | 11932 ft | 283 kts | 354° |
| 2026-05-06 18:53 | 59.46725 | 11.46274 | 11933 ft | 284 kts | 354° |
| 2026-05-06 18:54 | 59.48705 | 11.46156 | 11936 ft | 283 kts | 354° |
| 2026-05-06 18:54 | 59.50678 | 11.46037 | 11935 ft | 283 kts | 354° |
| 2026-05-06 18:54 | 59.52645 | 11.45919 | 11933 ft | 283 kts | 354° |
| 2026-05-06 18:54 | 59.54615 | 11.45806 | 11931 ft | 283 kts | 354° |
| 2026-05-06 18:55 | 59.56588 | 11.45667 | 11931 ft | 284 kts | 354° |
| 2026-05-06 18:55 | 59.58558 | 11.45557 | 11927 ft | 283 kts | 354° |
| 2026-05-06 18:55 | 59.60534 | 11.45435 | 11929 ft | 283 kts | 354° |
| 2026-05-06 18:55 | 59.62508 | 11.45316 | 11929 ft | 283 kts | 354° |
| 2026-05-06 18:56 | 59.64481 | 11.45207 | 11928 ft | 284 kts | 355° |
| 2026-05-06 18:56 | 59.66453 | 11.45088 | 11927 ft | 283 kts | 353° |
| 2026-05-06 18:56 | 59.68415 | 11.44935 | 11929 ft | 282 kts | 354° |
| 2026-05-06 18:56 | 59.70362 | 11.44824 | 11930 ft | 284 kts | 354° |
| 2026-05-06 18:57 | 59.72336 | 11.44716 | 11928 ft | 284 kts | 354° |
| 2026-05-06 18:57 | 59.74316 | 11.44595 | 11929 ft | 284 kts | 354° |
| 2026-05-06 18:57 | 59.76282 | 11.44474 | 11929 ft | 283 kts | 354° |
| 2026-05-06 18:57 | 59.78254 | 11.44339 | 11864 ft | 285 kts | 354° |
| 2026-05-06 18:58 | 59.80249 | 11.44231 | 11471 ft | 285 kts | 355° |
| 2026-05-06 18:58 | 59.82227 | 11.44117 | 11077 ft | 283 kts | 355° |
| 2026-05-06 18:58 | 59.84191 | 11.43985 | 10698 ft | 281 kts | 355° |
| 2026-05-06 18:58 | 59.86143 | 11.43861 | 10312 ft | 280 kts | 355° |
| 2026-05-06 18:59 | 59.88089 | 11.43744 | 9953 ft | 278 kts | 356° |
| 2026-05-06 18:59 | 59.89976 | 11.43627 | 9930 ft | 267 kts | 356° |
| 2026-05-06 18:59 | 59.91811 | 11.43494 | 9924 ft | 261 kts | 356° |
| 2026-05-06 18:59 | 59.93635 | 11.43377 | 9921 ft | 265 kts | 356° |
| 2026-05-06 19:00 | 59.95469 | 11.43266 | 9928 ft | 268 kts | 357° |
| 2026-05-06 19:00 | 59.97349 | 11.43164 | 9920 ft | 270 kts | 356° |
| 2026-05-06 19:00 | 59.99226 | 11.43037 | 9916 ft | 270 kts | 356° |
| 2026-05-06 19:00 | 60.00476 | 11.42959 | 9916 ft | 271 kts | 356° |
| 2026-05-06 19:01 | 60.02998 | 11.42807 | 9913 ft | 271 kts | 356° |
| 2026-05-06 19:01 | 60.04882 | 11.42688 | 9915 ft | 270 kts | 356° |
| 2026-05-06 19:01 | 60.06763 | 11.42574 | 9918 ft | 271 kts | 356° |
| 2026-05-06 19:01 | 60.08655 | 11.42455 | 9915 ft | 271 kts | 356° |
| 2026-05-06 19:02 | 60.10510 | 11.42331 | 9915 ft | 271 kts | 356° |
| 2026-05-06 19:02 | 60.12403 | 11.42210 | 9908 ft | 271 kts | 356° |
| 2026-05-06 19:02 | 60.14298 | 11.42092 | 9847 ft | 273 kts | 357° |
| 2026-05-06 19:02 | 60.16201 | 11.41977 | 9523 ft | 274 kts | 357° |
| 2026-05-06 19:03 | 60.18096 | 11.41864 | 9196 ft | 270 kts | 357° |
| 2026-05-06 19:03 | 60.19967 | 11.41746 | 8879 ft | 267 kts | 357° |
| 2026-05-06 19:03 | 60.21816 | 11.41628 | 8546 ft | 266 kts | 356° |
| 2026-05-06 19:03 | 60.23652 | 11.41514 | 8207 ft | 262 kts | 357° |
| 2026-05-06 19:04 | 60.25456 | 11.41374 | 7856 ft | 258 kts | 356° |
| 2026-05-06 19:04 | 60.27226 | 11.41263 | 7520 ft | 256 kts | 357° |
| 2026-05-06 19:04 | 60.29022 | 11.41169 | 7184 ft | 253 kts | 357° |
| 2026-05-06 19:04 | 60.30748 | 11.41055 | 6845 ft | 250 kts | 356° |
| 2026-05-06 19:05 | 60.32472 | 11.40939 | 6528 ft | 247 kts | 357° |
| 2026-05-06 19:05 | 60.34191 | 11.40835 | 6186 ft | 245 kts | 357° |
| 2026-05-06 19:05 | 60.35889 | 11.40714 | 5860 ft | 242 kts | 356° |
| 2026-05-06 19:05 | 60.37515 | 11.40067 | 5529 ft | 236 kts | 339° |
| 2026-05-06 19:06 | 60.38948 | 11.38515 | 5221 ft | 233 kts | 323° |
| 2026-05-06 19:06 | 60.40101 | 11.36231 | 4909 ft | 233 kts | 307° |
| 2026-05-06 19:06 | 60.40888 | 11.33400 | 4657 ft | 230 kts | 291° |
| 2026-05-06 19:06 | 60.41244 | 11.30312 | 4454 ft | 223 kts | 276° |
| 2026-05-06 19:07 | 60.41189 | 11.27260 | 4299 ft | 213 kts | 261° |
| 2026-05-06 19:07 | 60.41010 | 11.25326 | 4182 ft | 209 kts | 259° |
| 2026-05-06 19:07 | 60.40224 | 11.21840 | 3983 ft | 205 kts | 234° |
| 2026-05-06 19:07 | 60.39206 | 11.19840 | 3847 ft | 204 kts | 216° |
| 2026-05-06 19:08 | 60.37936 | 11.18577 | 3703 ft | 203 kts | 200° |
| 2026-05-06 19:08 | 60.36598 | 11.17849 | 3580 ft | 196 kts | 198° |
| 2026-05-06 19:08 | 60.35296 | 11.17109 | 3492 ft | 192 kts | 199° |
| 2026-05-06 19:08 | 60.34026 | 11.16347 | 3317 ft | 190 kts | 199° |
| 2026-05-06 19:09 | 60.32788 | 11.15642 | 3057 ft | 180 kts | 198° |
| 2026-05-06 19:09 | 60.31598 | 11.14958 | 2837 ft | 178 kts | 196° |
| 2026-05-06 19:09 | 60.30413 | 11.14276 | 2550 ft | 174 kts | 200° |
| 2026-05-06 19:09 | 60.29267 | 11.13595 | 2317 ft | 171 kts | 196° |
| 2026-05-06 19:10 | 60.28116 | 11.12952 | 2076 ft | 168 kts | 201° |
| 2026-05-06 19:10 | 60.27011 | 11.12231 | 1840 ft | 166 kts | 198° |
| 2026-05-06 19:10 | 60.25956 | 11.11634 | 1614 ft | 147 kts | 198° |
| 2026-05-06 19:10 | 60.25000 | 11.11098 | 1408 ft | 136 kts | 198° |
| 2026-05-06 19:11 | 60.24156 | 11.10633 | 1246 ft | 108 kts | 198° |
| 2026-05-06 19:11 | 60.23504 | 11.10269 | 1100 ft | 90 kts | 201° |
| 2026-05-06 19:11 | 60.22923 | 11.09927 | 989 ft | 85 kts | 200° |
| 2026-05-06 19:11 | 60.22337 | 11.09593 | 873 ft | 90 kts | 198° |
| 2026-05-06 19:12 | 60.21733 | 11.09243 | 736 ft | 91 kts | 199° |
| 2026-05-06 19:12 | 60.21178 | 11.08919 | 678 ft | 69 kts | 193° |
| 2026-05-06 19:12 | 60.20813 | 11.08702 | 673 ft | 38 kts | 197° |
| 2026-05-06 19:12 | 60.20723 | 11.08651 | 673 ft | 15 kts | 206° |
| 2026-05-06 19:13 | 60.20655 | 11.08408 | 674 ft | 16 kts | 245° |
| 2026-05-06 19:13 | 60.20644 | 11.08356 | 674 ft | 3 kts | 245° |
| 2026-05-06 19:13 | 60.20640 | 11.08300 | 674 ft | 5 kts | 291° |
| 2026-05-06 19:13 | 60.20654 | 11.08279 | 674 ft | 3 kts | 356° |
| 2026-05-06 19:14 | 60.20694 | 11.08295 | 674 ft | 7 kts | 17° |
| 2026-05-06 19:14 | 60.20754 | 11.08328 | 674 ft | 10 kts | 12° |
| 2026-05-06 19:14 | 60.20822 | 11.08368 | 675 ft | 11 kts | 17° |
| 2026-05-06 19:14 | 60.20873 | 11.08397 | 675 ft | 12 kts | 14° |
| 2026-05-06 19:15 | 60.20956 | 11.08382 | 676 ft | 11 kts | 326° |
| 2026-05-06 19:15 | 60.20959 | 11.08240 | 676 ft | 12 kts | 261° |
| 2026-05-06 19:15 | 60.20948 | 11.08069 | 675 ft | 12 kts | 293° |
| 2026-05-06 19:15 | 60.20974 | 11.08036 | 676 ft | 0 kts | 355° |